createdAt,value
2017-08-16T00:00:13.258Z,0
2017-08-16T00:01:12.654Z,0
2017-08-16T00:02:13.323Z,0
2017-08-16T00:03:13.652Z,0
2017-08-16T00:04:13.405Z,0
2017-08-16T00:05:13.750Z,0
2017-08-16T00:06:14.037Z,0
2017-08-16T00:07:13.143Z,0
2017-08-16T00:08:13.796Z,0
2017-08-16T00:09:12.573Z,0
2017-08-16T00:10:13.238Z,0
2017-08-16T00:11:14.178Z,0
2017-08-16T00:12:12.971Z,0
2017-08-16T00:13:13.317Z,0
2017-08-16T00:14:13.360Z,0
2017-08-16T00:15:14.000Z,0
2017-08-16T00:16:14.003Z,0
2017-08-16T00:17:13.425Z,0
2017-08-16T00:18:13.480Z,0
2017-08-16T00:19:13.805Z,0
2017-08-16T00:20:13.518Z,0
2017-08-16T00:21:14.470Z,0
2017-08-16T00:22:13.576Z,0
2017-08-16T00:23:13.929Z,0
2017-08-16T00:24:14.250Z,0
2017-08-16T00:25:14.286Z,0
2017-08-16T00:26:14.306Z,0
2017-08-16T00:27:13.710Z,0
2017-08-16T00:28:13.724Z,0
2017-08-16T00:29:14.079Z,0
2017-08-16T00:30:14.420Z,0
2017-08-16T00:31:14.426Z,0
2017-08-16T00:32:13.847Z,0
2017-08-16T00:33:13.880Z,0
2017-08-16T00:34:13.905Z,0
2017-08-16T00:35:14.261Z,0
2017-08-16T00:36:14.569Z,0
2017-08-16T00:37:13.992Z,0
2017-08-16T00:38:14.021Z,0
2017-08-16T00:39:14.358Z,0
2017-08-16T00:40:14.390Z,0
2017-08-16T00:41:14.986Z,0
2017-08-16T00:42:14.752Z,0
2017-08-16T00:43:14.785Z,0
2017-08-16T00:44:14.189Z,0
2017-08-16T00:45:14.850Z,0
2017-08-16T00:46:15.119Z,0
2017-08-16T00:47:14.587Z,0
2017-08-16T00:48:14.626Z,0
2017-08-16T00:49:14.649Z,0
2017-08-16T00:50:14.990Z,0
2017-08-16T00:51:14.991Z,0
2017-08-16T00:52:14.720Z,0
2017-08-16T00:53:14.761Z,0
2017-08-16T00:54:14.476Z,0
2017-08-16T00:55:14.805Z,0
2017-08-16T00:56:14.783Z,0
2017-08-16T00:57:15.183Z,0
2017-08-16T00:58:14.901Z,0
2017-08-16T00:59:14.931Z,0
2017-08-16T01:00:14.954Z,0
2017-08-16T01:01:15.234Z,0
2017-08-16T01:02:14.695Z,0
2017-08-16T01:03:14.732Z,0
2017-08-16T01:04:15.389Z,0
2017-08-16T01:05:15.414Z,0
2017-08-16T01:06:15.695Z,0
2017-08-16T01:07:15.149Z,0
2017-08-16T01:08:15.189Z,0
2017-08-16T01:09:15.544Z,0
2017-08-16T01:10:15.239Z,0
2017-08-16T01:11:15.551Z,0
2017-08-16T01:12:15.612Z,0
2017-08-16T01:13:15.329Z,0
2017-08-16T01:14:15.658Z,0
2017-08-16T01:15:15.679Z,0
2017-08-16T01:16:15.086Z,0
2017-08-16T01:17:15.418Z,0
2017-08-16T01:18:15.153Z,0
2017-08-16T01:19:15.502Z,0
2017-08-16T01:20:15.833Z,0
2017-08-16T01:21:15.243Z,0
2017-08-16T01:22:16.149Z,0
2017-08-16T01:23:15.291Z,0
2017-08-16T01:24:15.002Z,0
2017-08-16T01:25:15.037Z,0
2017-08-16T01:26:16.021Z,0
2017-08-16T01:27:16.332Z,0
2017-08-16T01:28:15.125Z,0
2017-08-16T01:29:15.461Z,0
2017-08-16T01:30:15.497Z,0
2017-08-16T01:31:16.179Z,0
2017-08-16T01:32:16.181Z,0
2017-08-16T01:33:15.889Z,0
2017-08-16T01:34:15.918Z,0
2017-08-16T01:35:16.255Z,0
2017-08-16T01:36:15.980Z,0
2017-08-16T01:37:15.991Z,0
2017-08-16T01:38:16.026Z,0
2017-08-16T01:39:16.377Z,0
2017-08-16T01:40:15.466Z,0
2017-08-16T01:41:16.423Z,0
2017-08-16T01:42:16.393Z,0
2017-08-16T01:43:16.477Z,0
2017-08-16T01:44:15.580Z,0
2017-08-16T01:45:15.912Z,0
2017-08-16T01:46:16.559Z,0
2017-08-16T01:47:15.911Z,0
2017-08-16T01:48:16.000Z,0
2017-08-16T01:49:16.339Z,0
2017-08-16T01:50:16.362Z,0
2017-08-16T01:51:16.394Z,0
2017-08-16T01:52:17.049Z,0
2017-08-16T01:53:16.458Z,0
2017-08-16T01:54:15.858Z,0
2017-08-16T01:55:16.203Z,0
2017-08-16T01:56:16.536Z,0
2017-08-16T01:57:16.448Z,0
2017-08-16T01:58:16.485Z,0
2017-08-16T01:59:16.202Z,0
2017-08-16T02:00:16.215Z,0
2017-08-16T02:01:16.868Z,0
2017-08-16T02:02:16.597Z,0
2017-08-16T02:03:16.324Z,0
2017-08-16T02:04:16.346Z,0
2017-08-16T02:05:16.679Z,0
2017-08-16T02:06:16.712Z,0
2017-08-16T02:07:17.036Z,0
2017-08-16T02:08:17.069Z,0
2017-08-16T02:09:16.487Z,0
2017-08-16T02:10:16.226Z,0
2017-08-16T02:11:16.848Z,0
2017-08-16T02:12:17.133Z,0
2017-08-16T02:13:16.593Z,0
2017-08-16T02:14:16.626Z,0
2017-08-16T02:15:16.992Z,0
2017-08-16T02:16:16.700Z,0
2017-08-16T02:17:17.273Z,0
2017-08-16T02:18:17.044Z,0
2017-08-16T02:19:17.071Z,0
2017-08-16T02:20:16.799Z,0
2017-08-16T02:21:16.836Z,0
2017-08-16T02:22:17.112Z,0
2017-08-16T02:23:16.949Z,0
2017-08-16T02:24:17.339Z,0
2017-08-16T02:25:17.695Z,0
2017-08-16T02:26:17.697Z,0
2017-08-16T02:27:17.979Z,0
2017-08-16T02:28:17.113Z,0
2017-08-16T02:29:17.457Z,0
2017-08-16T02:30:17.486Z,0
2017-08-16T02:31:17.215Z,0
2017-08-16T02:32:18.106Z,0
2017-08-16T02:33:17.578Z,0
2017-08-16T02:34:17.935Z,0
2017-08-16T02:35:17.940Z,0
2017-08-16T02:36:17.349Z,0
2017-08-16T02:37:17.629Z,0
2017-08-16T02:38:17.730Z,0
2017-08-16T02:39:17.779Z,0
2017-08-16T02:40:17.780Z,0
2017-08-16T02:41:18.117Z,0
2017-08-16T02:42:18.137Z,0
2017-08-16T02:43:17.854Z,0
2017-08-16T02:44:18.200Z,0
2017-08-16T02:45:17.912Z,0
2017-08-16T02:46:17.937Z,0
2017-08-16T02:47:17.917Z,0
2017-08-16T02:48:18.001Z,0
2017-08-16T02:49:18.036Z,0
2017-08-16T02:50:18.376Z,0
2017-08-16T02:51:18.411Z,0
2017-08-16T02:52:18.427Z,0
2017-08-16T02:53:17.838Z,0
2017-08-16T02:54:18.163Z,0
2017-08-16T02:55:18.513Z,0
2017-08-16T02:56:18.236Z,0
2017-08-16T02:57:18.561Z,0
2017-08-16T02:58:18.287Z,0
2017-08-16T02:59:18.020Z,0
2017-08-16T03:00:18.654Z,0
2017-08-16T03:01:18.368Z,0
2017-08-16T03:02:18.650Z,0
2017-08-16T03:03:18.732Z,0
2017-08-16T03:04:18.763Z,0
2017-08-16T03:05:18.168Z,0
2017-08-16T03:06:18.511Z,0
2017-08-16T03:07:19.161Z,0
2017-08-16T03:08:18.255Z,0
2017-08-16T03:09:18.275Z,0
2017-08-16T03:10:18.304Z,0
2017-08-16T03:11:18.337Z,0
2017-08-16T03:12:18.694Z,0
2017-08-16T03:13:18.995Z,0
2017-08-16T03:14:19.043Z,0
2017-08-16T03:15:18.441Z,0
2017-08-16T03:16:18.792Z,0
2017-08-16T03:17:18.813Z,0
2017-08-16T03:18:19.163Z,0
2017-08-16T03:19:18.251Z,0
2017-08-16T03:20:18.592Z,0
2017-08-16T03:21:18.633Z,0
2017-08-16T03:22:18.663Z,0
2017-08-16T03:23:18.971Z,0
2017-08-16T03:24:19.011Z,0
2017-08-16T03:25:19.041Z,0
2017-08-16T03:26:19.066Z,0
2017-08-16T03:27:18.786Z,0
2017-08-16T03:28:19.478Z,0
2017-08-16T03:29:19.464Z,0
2017-08-16T03:30:19.557Z,0
2017-08-16T03:31:19.521Z,0
2017-08-16T03:32:19.230Z,0
2017-08-16T03:33:19.829Z,0
2017-08-16T03:34:18.672Z,0
2017-08-16T03:35:19.652Z,0
2017-08-16T03:36:19.353Z,0
2017-08-16T03:37:19.693Z,0
2017-08-16T03:38:19.643Z,0
2017-08-16T03:39:19.747Z,0
2017-08-16T03:40:18.844Z,0
2017-08-16T03:41:19.196Z,0
2017-08-16T03:42:19.519Z,0
2017-08-16T03:43:20.219Z,0
2017-08-16T03:44:19.884Z,0
2017-08-16T03:45:19.909Z,0
2017-08-16T03:46:19.322Z,0
2017-08-16T03:47:19.670Z,0
2017-08-16T03:48:19.691Z,0
2017-08-16T03:49:19.723Z,0
2017-08-16T03:50:19.432Z,0
2017-08-16T03:51:19.774Z,0
2017-08-16T03:52:20.114Z,0
2017-08-16T03:53:20.391Z,0
2017-08-16T03:54:20.172Z,0
2017-08-16T03:55:19.885Z,0
2017-08-16T03:56:19.927Z,0
2017-08-16T03:57:19.947Z,0
2017-08-16T03:58:20.584Z,0
2017-08-16T03:59:20.074Z,0
2017-08-16T04:00:20.025Z,0
2017-08-16T04:01:20.364Z,0
2017-08-16T04:02:20.074Z,0
2017-08-16T04:03:20.095Z,0
2017-08-16T04:04:20.128Z,0
2017-08-16T04:05:19.849Z,0
2017-08-16T04:06:19.871Z,0
2017-08-16T04:07:20.228Z,0
2017-08-16T04:08:20.561Z,0
2017-08-16T04:09:20.276Z,0
2017-08-16T04:10:19.689Z,0
2017-08-16T04:11:20.342Z,0
2017-08-16T04:12:20.362Z,0
2017-08-16T04:13:20.686Z,0
2017-08-16T04:14:20.101Z,0
2017-08-16T04:15:20.464Z,0
2017-08-16T04:16:20.167Z,0
2017-08-16T04:17:19.590Z,0
2017-08-16T04:18:20.470Z,0
2017-08-16T04:19:20.891Z,0
2017-08-16T04:20:20.272Z,0
2017-08-16T04:21:20.931Z,0
2017-08-16T04:22:20.971Z,0
2017-08-16T04:23:20.984Z,0
2017-08-16T04:24:20.713Z,0
2017-08-16T04:25:20.434Z,0
2017-08-16T04:26:20.762Z,0
2017-08-16T04:27:20.785Z,0
2017-08-16T04:28:21.115Z,0
2017-08-16T04:29:21.153Z,0
2017-08-16T04:30:20.887Z,0
2017-08-16T04:31:20.594Z,0
2017-08-16T04:32:20.927Z,0
2017-08-16T04:33:21.255Z,0
2017-08-16T04:34:20.980Z,0
2017-08-16T04:35:20.390Z,0
2017-08-16T04:36:20.725Z,0
2017-08-16T04:37:21.075Z,0
2017-08-16T04:38:21.656Z,0
2017-08-16T04:39:21.120Z,0
2017-08-16T04:40:21.156Z,0
2017-08-16T04:41:21.487Z,0
2017-08-16T04:42:21.207Z,0
2017-08-16T04:43:21.222Z,0
2017-08-16T04:44:20.949Z,0
2017-08-16T04:45:20.974Z,0
2017-08-16T04:46:20.692Z,0
2017-08-16T04:47:21.347Z,0
2017-08-16T04:48:21.356Z,0
2017-08-16T04:49:21.403Z,0
2017-08-16T04:50:21.112Z,0
2017-08-16T04:51:21.474Z,0
2017-08-16T04:52:21.495Z,0
2017-08-16T04:53:21.812Z,0
2017-08-16T04:54:21.536Z,0
2017-08-16T04:55:21.571Z,0
2017-08-16T04:56:21.598Z,0
2017-08-16T04:57:21.639Z,0
2017-08-16T04:58:22.280Z,0
2017-08-16T04:59:21.993Z,0
2017-08-16T05:00:21.709Z,0
2017-08-16T05:01:20.805Z,0
2017-08-16T05:02:22.087Z,0
2017-08-16T05:03:22.083Z,0
2017-08-16T05:04:21.818Z,0
2017-08-16T05:05:21.849Z,0
2017-08-16T05:06:21.890Z,0
2017-08-16T05:07:22.220Z,0
2017-08-16T05:08:21.932Z,0
2017-08-16T05:09:21.644Z,0
2017-08-16T05:10:22.297Z,0
2017-08-16T05:11:21.393Z,0
2017-08-16T05:12:22.043Z,5
2017-08-16T05:13:22.323Z,5
2017-08-16T05:14:22.097Z,0
2017-08-16T05:15:22.458Z,0
2017-08-16T05:16:22.159Z,0
2017-08-16T05:17:22.187Z,0
2017-08-16T05:18:22.458Z,5
2017-08-16T05:19:22.237Z,5
2017-08-16T05:20:22.260Z,5
2017-08-16T05:21:21.672Z,0
2017-08-16T05:22:22.332Z,0
2017-08-16T05:23:22.342Z,0
2017-08-16T05:24:22.380Z,0
2017-08-16T05:25:22.719Z,0
2017-08-16T05:26:22.126Z,0
2017-08-16T05:27:22.462Z,5
2017-08-16T05:28:22.779Z,0
2017-08-16T05:29:22.236Z,0
2017-08-16T05:30:22.230Z,5
2017-08-16T05:31:22.566Z,5
2017-08-16T05:32:22.283Z,5
2017-08-16T05:33:22.878Z,5
2017-08-16T05:34:22.660Z,0
2017-08-16T05:35:22.680Z,0
2017-08-16T05:36:22.747Z,0
2017-08-16T05:37:22.742Z,0
2017-08-16T05:38:22.760Z,0
2017-08-16T05:39:23.117Z,5
2017-08-16T05:40:22.831Z,5
2017-08-16T05:41:23.177Z,5
2017-08-16T05:42:23.206Z,5
2017-08-16T05:43:23.218Z,5
2017-08-16T05:44:23.264Z,5
2017-08-16T05:45:22.657Z,5
2017-08-16T05:46:23.011Z,5
2017-08-16T05:47:22.735Z,5
2017-08-16T05:48:23.055Z,5
2017-08-16T05:49:23.384Z,5
2017-08-16T05:50:23.425Z,5
2017-08-16T05:51:23.135Z,0
2017-08-16T05:52:22.543Z,5
2017-08-16T05:53:23.209Z,5
2017-08-16T05:54:23.529Z,5
2017-08-16T05:55:23.557Z,5
2017-08-16T05:56:22.959Z,5
2017-08-16T05:57:23.007Z,5
2017-08-16T05:58:23.333Z,5
2017-08-16T05:59:23.311Z,5
2017-08-16T06:00:23.406Z,5
2017-08-16T06:01:23.107Z,5
2017-08-16T06:02:23.142Z,5
2017-08-16T06:03:22.848Z,5
2017-08-16T06:04:24.068Z,5
2017-08-16T06:05:22.904Z,5
2017-08-16T06:06:23.259Z,5
2017-08-16T06:07:23.286Z,5
2017-08-16T06:08:23.612Z,10
2017-08-16T06:09:23.946Z,10
2017-08-16T06:10:23.982Z,10
2017-08-16T06:11:24.017Z,5
2017-08-16T06:12:23.715Z,5
2017-08-16T06:13:23.765Z,5
2017-08-16T06:14:23.506Z,5
2017-08-16T06:15:23.857Z,5
2017-08-16T06:16:24.147Z,5
2017-08-16T06:17:23.868Z,5
2017-08-16T06:18:23.576Z,5
2017-08-16T06:19:24.216Z,10
2017-08-16T06:20:23.951Z,10
2017-08-16T06:21:23.981Z,5
2017-08-16T06:22:23.702Z,5
2017-08-16T06:23:24.058Z,5
2017-08-16T06:24:24.009Z,10
2017-08-16T06:25:24.088Z,10
2017-08-16T06:26:24.423Z,10
2017-08-16T06:27:23.832Z,10
2017-08-16T06:28:24.175Z,10
2017-08-16T06:29:24.501Z,10
2017-08-16T06:30:24.542Z,10
2017-08-16T06:31:23.951Z,10
2017-08-16T06:32:24.287Z,10
2017-08-16T06:33:23.692Z,10
2017-08-16T06:34:24.956Z,10
2017-08-16T06:35:23.741Z,10
2017-08-16T06:36:24.411Z,10
2017-08-16T06:37:24.431Z,10
2017-08-16T06:38:24.149Z,15
2017-08-16T06:39:25.105Z,15
2017-08-16T06:40:24.202Z,10
2017-08-16T06:41:24.535Z,10
2017-08-16T06:42:24.578Z,10
2017-08-16T06:43:24.591Z,10
2017-08-16T06:44:24.921Z,10
2017-08-16T06:45:24.658Z,10
2017-08-16T06:46:24.370Z,10
2017-08-16T06:47:24.091Z,10
2017-08-16T06:48:24.433Z,10
2017-08-16T06:49:25.058Z,10
2017-08-16T06:50:25.097Z,10
2017-08-16T06:51:24.826Z,10
2017-08-16T06:52:24.855Z,10
2017-08-16T06:53:24.252Z,10
2017-08-16T06:54:24.581Z,10
2017-08-16T06:55:24.635Z,10
2017-08-16T06:56:25.279Z,10
2017-08-16T06:57:24.704Z,10
2017-08-16T06:58:25.331Z,10
2017-08-16T06:59:25.029Z,10
2017-08-16T07:00:24.478Z,10
2017-08-16T07:01:25.422Z,10
2017-08-16T07:02:25.458Z,10
2017-08-16T07:03:24.540Z,10
2017-08-16T07:04:25.753Z,10
2017-08-16T07:05:24.906Z,10
2017-08-16T07:06:25.248Z,10
2017-08-16T07:07:25.271Z,10
2017-08-16T07:08:24.988Z,10
2017-08-16T07:09:25.313Z,10
2017-08-16T07:10:25.034Z,10
2017-08-16T07:11:24.443Z,10
2017-08-16T07:12:25.417Z,10
2017-08-16T07:13:25.441Z,10
2017-08-16T07:14:25.504Z,10
2017-08-16T07:15:25.503Z,10
2017-08-16T07:16:25.537Z,10
2017-08-16T07:17:25.864Z,10
2017-08-16T07:18:25.579Z,10
2017-08-16T07:19:25.241Z,10
2017-08-16T07:20:25.947Z,15
2017-08-16T07:21:25.351Z,15
2017-08-16T07:22:25.725Z,15
2017-08-16T07:23:25.713Z,15
2017-08-16T07:24:25.700Z,20
2017-08-16T07:25:26.082Z,20
2017-08-16T07:26:26.114Z,25
2017-08-16T07:27:26.140Z,25
2017-08-16T07:28:25.257Z,20
2017-08-16T07:29:26.198Z,20
2017-08-16T07:30:26.230Z,25
2017-08-16T07:31:25.942Z,25
2017-08-16T07:32:25.972Z,25
2017-08-16T07:33:26.330Z,25
2017-08-16T07:34:26.039Z,25
2017-08-16T07:35:25.751Z,25
2017-08-16T07:36:26.403Z,15
2017-08-16T07:37:25.515Z,15
2017-08-16T07:38:26.141Z,15
2017-08-16T07:39:26.461Z,15
2017-08-16T07:40:26.194Z,15
2017-08-16T07:41:25.911Z,15
2017-08-16T07:42:25.931Z,15
2017-08-16T07:43:26.281Z,15
2017-08-16T07:44:26.274Z,15
2017-08-16T07:45:26.013Z,20
2017-08-16T07:46:26.365Z,20
2017-08-16T07:47:26.079Z,20
2017-08-16T07:48:26.430Z,20
2017-08-16T07:49:26.386Z,20
2017-08-16T07:50:26.474Z,20
2017-08-16T07:51:26.808Z,20
2017-08-16T07:52:26.528Z,20
2017-08-16T07:53:26.877Z,20
2017-08-16T07:54:26.906Z,15
2017-08-16T07:55:26.311Z,15
2017-08-16T07:56:26.959Z,15
2017-08-16T07:57:26.682Z,15
2017-08-16T07:58:27.021Z,15
2017-08-16T07:59:26.738Z,15
2017-08-16T08:00:26.763Z,15
2017-08-16T08:01:27.102Z,20
2017-08-16T08:02:26.804Z,15
2017-08-16T08:03:26.844Z,20
2017-08-16T08:04:27.224Z,20
2017-08-16T08:05:26.911Z,20
2017-08-16T08:06:26.935Z,20
2017-08-16T08:07:26.955Z,20
2017-08-16T08:08:27.297Z,20
2017-08-16T08:09:26.690Z,20
2017-08-16T08:10:27.346Z,20
2017-08-16T08:11:27.068Z,20
2017-08-16T08:12:27.096Z,20
2017-08-16T08:13:26.829Z,20
2017-08-16T08:14:26.846Z,20
2017-08-16T08:15:27.185Z,20
2017-08-16T08:16:27.206Z,15
2017-08-16T08:17:27.223Z,20
2017-08-16T08:18:27.263Z,20
2017-08-16T08:19:26.991Z,25
2017-08-16T08:20:27.630Z,25
2017-08-16T08:21:27.041Z,25
2017-08-16T08:22:27.683Z,30
2017-08-16T08:23:27.400Z,30
2017-08-16T08:24:27.116Z,25
2017-08-16T08:25:27.450Z,30
2017-08-16T08:26:27.804Z,35
2017-08-16T08:27:27.537Z,35
2017-08-16T08:28:27.856Z,40
2017-08-16T08:29:27.586Z,40
2017-08-16T08:30:28.223Z,40
2017-08-16T08:31:27.640Z,35
2017-08-16T08:32:27.697Z,35
2017-08-16T08:33:27.380Z,35
2017-08-16T08:34:27.721Z,40
2017-08-16T08:35:27.743Z,35
2017-08-16T08:36:27.768Z,30
2017-08-16T08:37:27.824Z,25
2017-08-16T08:38:27.827Z,25
2017-08-16T08:39:27.864Z,25
2017-08-16T08:40:27.895Z,25
2017-08-16T08:41:27.944Z,30
2017-08-16T08:42:27.640Z,30
2017-08-16T08:43:27.979Z,30
2017-08-16T08:44:27.378Z,35
2017-08-16T08:45:28.278Z,35
2017-08-16T08:46:28.066Z,35
2017-08-16T08:47:28.086Z,35
2017-08-16T08:48:28.126Z,30
2017-08-16T08:49:28.141Z,30
2017-08-16T08:50:28.486Z,30
2017-08-16T08:51:28.511Z,25
2017-08-16T08:52:28.253Z,25
2017-08-16T08:53:28.575Z,25
2017-08-16T08:54:28.282Z,25
2017-08-16T08:55:28.303Z,20
2017-08-16T08:56:28.340Z,20
2017-08-16T08:57:28.062Z,20
2017-08-16T08:58:28.455Z,25
2017-08-16T08:59:28.429Z,25
2017-08-16T09:00:28.753Z,25
2017-08-16T09:01:28.480Z,25
2017-08-16T09:02:28.203Z,25
2017-08-16T09:03:28.545Z,25
2017-08-16T09:04:28.573Z,25
2017-08-16T09:05:29.163Z,25
2017-08-16T09:06:28.310Z,25
2017-08-16T09:07:28.336Z,25
2017-08-16T09:08:28.370Z,25
2017-08-16T09:09:28.092Z,25
2017-08-16T09:10:28.734Z,25
2017-08-16T09:11:28.147Z,25
2017-08-16T09:12:29.112Z,25
2017-08-16T09:13:29.159Z,25
2017-08-16T09:14:28.542Z,20
2017-08-16T09:15:29.187Z,25
2017-08-16T09:16:28.912Z,25
2017-08-16T09:17:28.004Z,25
2017-08-16T09:18:28.362Z,30
2017-08-16T09:19:28.686Z,30
2017-08-16T09:20:29.278Z,25
2017-08-16T09:21:29.378Z,30
2017-08-16T09:22:29.396Z,30
2017-08-16T09:23:29.105Z,30
2017-08-16T09:24:29.458Z,30
2017-08-16T09:25:29.437Z,30
2017-08-16T09:26:29.217Z,30
2017-08-16T09:27:29.232Z,25
2017-08-16T09:28:29.569Z,25
2017-08-16T09:29:29.601Z,25
2017-08-16T09:30:29.307Z,25
2017-08-16T09:31:29.652Z,30
2017-08-16T09:32:29.388Z,30
2017-08-16T09:33:29.726Z,30
2017-08-16T09:34:29.737Z,25
2017-08-16T09:35:30.074Z,25
2017-08-16T09:36:29.479Z,25
2017-08-16T09:37:29.201Z,25
2017-08-16T09:38:29.858Z,25
2017-08-16T09:39:29.882Z,25
2017-08-16T09:40:30.219Z,25
2017-08-16T09:41:29.631Z,25
2017-08-16T09:42:29.969Z,25
2017-08-16T09:43:29.701Z,25
2017-08-16T09:44:29.720Z,25
2017-08-16T09:45:30.055Z,25
2017-08-16T09:46:29.455Z,30
2017-08-16T09:47:30.104Z,30
2017-08-16T09:48:29.516Z,30
2017-08-16T09:49:29.857Z,30
2017-08-16T09:50:29.267Z,30
2017-08-16T09:51:30.575Z,30
2017-08-16T09:52:29.325Z,30
2017-08-16T09:53:29.974Z,30
2017-08-16T09:54:29.699Z,30
2017-08-16T09:55:30.367Z,30
2017-08-16T09:56:30.315Z,30
2017-08-16T09:57:30.122Z,30
2017-08-16T09:58:30.132Z,30
2017-08-16T09:59:30.466Z,35
2017-08-16T10:00:29.551Z,35
2017-08-16T10:01:30.816Z,35
2017-08-16T10:02:29.930Z,35
2017-08-16T10:03:30.262Z,35
2017-08-16T10:04:29.998Z,35
2017-08-16T10:05:30.645Z,35
2017-08-16T10:06:30.293Z,35
2017-08-16T10:07:30.397Z,35
2017-08-16T10:08:30.099Z,35
2017-08-16T10:09:30.439Z,35
2017-08-16T10:10:30.187Z,35
2017-08-16T10:11:30.506Z,35
2017-08-16T10:12:30.829Z,35
2017-08-16T10:13:30.862Z,35
2017-08-16T10:14:30.895Z,35
2017-08-16T10:15:30.928Z,35
2017-08-16T10:16:30.937Z,35
2017-08-16T10:17:30.360Z,35
2017-08-16T10:18:30.709Z,35
2017-08-16T10:19:30.735Z,35
2017-08-16T10:20:31.071Z,35
2017-08-16T10:21:31.092Z,35
2017-08-16T10:22:30.510Z,35
2017-08-16T10:23:30.545Z,35
2017-08-16T10:24:30.555Z,40
2017-08-16T10:25:30.580Z,40
2017-08-16T10:26:31.176Z,40
2017-08-16T10:27:31.271Z,40
2017-08-16T10:28:30.682Z,40
2017-08-16T10:29:31.020Z,40
2017-08-16T10:30:30.433Z,45
2017-08-16T10:31:31.368Z,45
2017-08-16T10:32:31.116Z,45
2017-08-16T10:33:31.161Z,45
2017-08-16T10:34:31.167Z,45
2017-08-16T10:35:31.504Z,50
2017-08-16T10:36:31.168Z,50
2017-08-16T10:37:31.252Z,50
2017-08-16T10:38:31.584Z,60
2017-08-16T10:39:31.303Z,60
2017-08-16T10:40:30.718Z,60
2017-08-16T10:41:31.304Z,60
2017-08-16T10:42:31.405Z,45
2017-08-16T10:43:31.738Z,45
2017-08-16T10:44:31.775Z,45
2017-08-16T10:45:31.493Z,55
2017-08-16T10:46:31.810Z,55
2017-08-16T10:47:31.849Z,45
2017-08-16T10:48:31.565Z,50
2017-08-16T10:49:31.291Z,50
2017-08-16T10:50:31.315Z,50
2017-08-16T10:51:32.280Z,45
2017-08-16T10:52:31.394Z,50
2017-08-16T10:53:32.042Z,55
2017-08-16T10:54:32.069Z,65
2017-08-16T10:55:31.143Z,70
2017-08-16T10:56:32.061Z,70
2017-08-16T10:57:31.534Z,75
2017-08-16T10:58:31.858Z,75
2017-08-16T10:59:31.279Z,70
2017-08-16T11:00:31.632Z,70
2017-08-16T11:01:32.253Z,65
2017-08-16T11:02:32.293Z,70
2017-08-16T11:03:32.327Z,70
2017-08-16T11:04:32.347Z,80
2017-08-16T11:05:32.062Z,80
2017-08-16T11:06:32.092Z,75
2017-08-16T11:07:31.812Z,75
2017-08-16T11:08:32.146Z,75
2017-08-16T11:09:31.870Z,80
2017-08-16T11:10:32.212Z,65
2017-08-16T11:11:31.921Z,70
2017-08-16T11:12:32.611Z,70
2017-08-16T11:13:32.297Z,80
2017-08-16T11:14:32.663Z,70
2017-08-16T11:15:32.040Z,65
2017-08-16T11:16:33.005Z,70
2017-08-16T11:17:32.098Z,70
2017-08-16T11:18:32.780Z,85
2017-08-16T11:19:32.163Z,65
2017-08-16T11:20:32.516Z,80
2017-08-16T11:21:33.105Z,100
2017-08-16T11:22:32.575Z,110
2017-08-16T11:23:32.285Z,120
2017-08-16T11:24:32.627Z,120
2017-08-16T11:25:32.963Z,115
2017-08-16T11:26:33.266Z,115
2017-08-16T11:27:32.395Z,115
2017-08-16T11:28:33.067Z,120
2017-08-16T11:29:32.790Z,120
2017-08-16T11:30:32.803Z,120
2017-08-16T11:31:33.129Z,100
2017-08-16T11:32:32.883Z,90
2017-08-16T11:33:32.923Z,105
2017-08-16T11:34:33.243Z,100
2017-08-16T11:35:32.959Z,100
2017-08-16T11:36:32.976Z,95
2017-08-16T11:37:33.330Z,85
2017-08-16T11:38:33.351Z,90
2017-08-16T11:39:33.388Z,125
2017-08-16T11:40:32.466Z,155
2017-08-16T11:41:33.434Z,115
2017-08-16T11:42:32.536Z,155
2017-08-16T11:43:33.197Z,150
2017-08-16T11:44:33.224Z,105
2017-08-16T11:45:33.555Z,135
2017-08-16T11:46:33.525Z,140
2017-08-16T11:47:33.624Z,110
2017-08-16T11:48:33.025Z,90
2017-08-16T11:49:33.676Z,140
2017-08-16T11:50:33.717Z,150
2017-08-16T11:51:33.370Z,140
2017-08-16T11:52:33.138Z,95
2017-08-16T11:53:33.495Z,80
2017-08-16T11:54:32.902Z,70
2017-08-16T11:55:33.539Z,75
2017-08-16T11:56:33.201Z,105
2017-08-16T11:57:33.930Z,130
2017-08-16T11:58:33.016Z,130
2017-08-16T11:59:33.357Z,145
2017-08-16T12:00:33.701Z,160
2017-08-16T12:01:33.978Z,165
2017-08-16T12:02:33.150Z,150
2017-08-16T12:03:33.483Z,150
2017-08-16T12:04:33.824Z,145
2017-08-16T12:05:33.853Z,145
2017-08-16T12:06:34.127Z,125
2017-08-16T12:07:33.905Z,140
2017-08-16T12:08:34.259Z,150
2017-08-16T12:09:33.664Z,155
2017-08-16T12:10:34.005Z,220
2017-08-16T12:11:34.281Z,195
2017-08-16T12:12:34.066Z,225
2017-08-16T12:13:34.398Z,230
2017-08-16T12:14:34.133Z,220
2017-08-16T12:15:34.162Z,215
2017-08-16T12:16:34.482Z,155
2017-08-16T12:17:34.212Z,210
2017-08-16T12:18:34.560Z,105
2017-08-16T12:19:33.968Z,205
2017-08-16T12:20:34.311Z,135
2017-08-16T12:21:34.902Z,130
2017-08-16T12:22:34.068Z,240
2017-08-16T12:23:34.417Z,215
2017-08-16T12:24:34.125Z,100
2017-08-16T12:25:34.472Z,60
2017-08-16T12:26:35.119Z,45
2017-08-16T12:27:34.839Z,35
2017-08-16T12:28:34.567Z,30
2017-08-16T12:29:33.963Z,30
2017-08-16T12:30:34.619Z,30
2017-08-16T12:31:34.638Z,30
2017-08-16T12:32:35.002Z,35
2017-08-16T12:33:34.091Z,45
2017-08-16T12:34:34.744Z,90
2017-08-16T12:35:34.478Z,85
2017-08-16T12:36:35.160Z,85
2017-08-16T12:37:35.160Z,100
2017-08-16T12:38:34.864Z,155
2017-08-16T12:39:34.919Z,155
2017-08-16T12:40:34.306Z,130
2017-08-16T12:41:35.270Z,135
2017-08-16T12:42:35.308Z,130
2017-08-16T12:43:35.041Z,130
2017-08-16T12:44:34.432Z,140
2017-08-16T12:45:35.100Z,115
2017-08-16T12:46:35.759Z,165
2017-08-16T12:47:34.217Z,165
2017-08-16T12:48:35.182Z,125
2017-08-16T12:49:35.532Z,160
2017-08-16T12:50:34.926Z,145
2017-08-16T12:51:35.527Z,145
2017-08-16T12:52:35.615Z,145
2017-08-16T12:53:35.344Z,135
2017-08-16T12:54:35.364Z,130
2017-08-16T12:55:35.398Z,140
2017-08-16T12:56:36.005Z,115
2017-08-16T12:57:35.459Z,125
2017-08-16T12:58:35.496Z,135
2017-08-16T12:59:35.521Z,150
2017-08-16T13:00:35.554Z,130
2017-08-16T13:01:36.146Z,100
2017-08-16T13:02:35.940Z,85
2017-08-16T13:03:35.957Z,120
2017-08-16T13:04:35.673Z,110
2017-08-16T13:05:35.704Z,115
2017-08-16T13:06:36.365Z,85
2017-08-16T13:07:35.768Z,75
2017-08-16T13:08:35.804Z,55
2017-08-16T13:09:35.842Z,50
2017-08-16T13:10:35.545Z,45
2017-08-16T13:11:36.202Z,35
2017-08-16T13:12:35.928Z,35
2017-08-16T13:13:35.957Z,45
2017-08-16T13:14:35.681Z,40
2017-08-16T13:15:36.330Z,35
2017-08-16T13:16:35.730Z,40
2017-08-16T13:17:36.400Z,45
2017-08-16T13:18:35.800Z,50
2017-08-16T13:19:35.850Z,55
2017-08-16T13:20:35.246Z,60
2017-08-16T13:21:36.519Z,70
2017-08-16T13:22:35.934Z,75
2017-08-16T13:23:36.585Z,85
2017-08-16T13:24:35.997Z,90
2017-08-16T13:25:36.330Z,90
2017-08-16T13:26:36.659Z,75
2017-08-16T13:27:36.088Z,70
2017-08-16T13:28:36.432Z,65
2017-08-16T13:29:36.447Z,70
2017-08-16T13:30:36.173Z,60
2017-08-16T13:31:37.154Z,55
2017-08-16T13:32:36.259Z,55
2017-08-16T13:33:36.591Z,60
2017-08-16T13:34:36.613Z,60
2017-08-16T13:35:36.328Z,55
2017-08-16T13:36:37.287Z,55
2017-08-16T13:37:36.078Z,55
2017-08-16T13:38:37.032Z,55
2017-08-16T13:39:37.097Z,55
2017-08-16T13:40:37.110Z,55
2017-08-16T13:41:36.498Z,55
2017-08-16T13:42:36.859Z,50
2017-08-16T13:43:35.945Z,45
2017-08-16T13:44:36.631Z,45
2017-08-16T13:45:36.942Z,40
2017-08-16T13:46:36.910Z,35
2017-08-16T13:47:37.003Z,30
2017-08-16T13:48:37.028Z,30
2017-08-16T13:49:36.761Z,25
2017-08-16T13:50:37.106Z,25
2017-08-16T13:51:37.427Z,20
2017-08-16T13:52:37.156Z,20
2017-08-16T13:53:36.895Z,20
2017-08-16T13:54:37.225Z,20
2017-08-16T13:55:37.255Z,20
2017-08-16T13:56:37.589Z,15
2017-08-16T13:57:36.685Z,15
2017-08-16T13:58:37.046Z,15
2017-08-16T13:59:36.750Z,15
2017-08-16T14:00:36.778Z,15
2017-08-16T14:01:37.692Z,15
2017-08-16T14:02:37.475Z,15
2017-08-16T14:03:37.172Z,20
2017-08-16T14:04:37.202Z,25
2017-08-16T14:05:37.562Z,25
2017-08-16T14:06:36.667Z,30
2017-08-16T14:07:37.556Z,35
2017-08-16T14:08:37.953Z,35
2017-08-16T14:09:37.674Z,35
2017-08-16T14:10:37.402Z,35
2017-08-16T14:11:38.050Z,35
2017-08-16T14:12:38.071Z,35
2017-08-16T14:13:37.805Z,35
2017-08-16T14:14:37.509Z,40
2017-08-16T14:15:37.533Z,40
2017-08-16T14:16:37.883Z,40
2017-08-16T14:17:38.528Z,40
2017-08-16T14:18:37.631Z,40
2017-08-16T14:19:37.970Z,40
2017-08-16T14:20:37.383Z,40
2017-08-16T14:21:38.039Z,40
2017-08-16T14:22:38.672Z,40
2017-08-16T14:23:38.089Z,40
2017-08-16T14:24:37.810Z,40
2017-08-16T14:25:37.842Z,35
2017-08-16T14:26:38.186Z,35